Time;durP1;ratioP1;P1;durP2;ratioP2;P2;SDS_P1;SDS_P2;PMS_P1;PMS_P2;Temp;Humidity;BMP_temperature;BMP_pressure;BME280_temperature;BME280_humidity;BME280_pressure;Samples;Min_cycle;Max_cycle;Signal;HPM_P1;HPM_P2
2022/11/28 00:01:43;;;;;;;35.88;22.35;;;;;;;;;;5068752;28;20036;-67
2022/11/28 00:04:09;;;;;;;32.65;19.17;;;;;;;;;;5068328;28;20036;-67
2022/11/28 00:06:37;;;;;;;42.47;23.80;;;;;;;;;;5048307;28;20622;-66
2022/11/28 00:09:03;;;;;;;39.50;23.45;;;;;;;;;;5069262;28;20408;-66
2022/11/28 00:11:29;;;;;;;37.20;23.20;;;;;;;;;;5060539;28;20055;-67
2022/11/28 00:13:55;;;;;;;39.25;23.27;;;;;;;;;;5050950;28;20048;-66
2022/11/28 00:16:22;;;;;;;40.90;23.70;;;;;;;;;;5069458;28;20049;-67
2022/11/28 00:18:49;;;;;;;43.20;24.65;;;;;;;;;;5051534;28;20051;-67
2022/11/28 00:21:15;;;;;;;45.20;24.17;;;;;;;;;;5068468;28;20079;-67
2022/11/28 00:23:42;;;;;;;43.53;24.15;;;;;;;;;;5068632;28;21280;-67
2022/11/28 00:26:10;;;;;;;40.00;24.65;;;;;;;;;;5071554;28;20101;-66
2022/11/28 00:28:37;;;;;;;39.20;25.25;;;;;;;;;;5071924;28;20043;-67
2022/11/28 00:31:03;;;;;;;49.17;25.05;;;;;;;;;;5055012;28;20044;-66
2022/11/28 00:33:31;;;;;;;47.03;27.08;;;;;;;;;;5049544;28;20437;-66
2022/11/28 00:35:58;;;;;;;38.88;24.23;;;;;;;;;;5050727;28;20048;-66
2022/11/28 00:38:24;;;;;;;45.90;24.50;;;;;;;;;;5068414;28;20063;-66
2022/11/28 00:40:57;;;;;;;42.55;24.05;;;;;;;;;;5050795;28;20469;-66
2022/11/28 00:43:23;;;;;;;33.35;21.30;;;;;;;;;;5075653;28;20040;-66
2022/11/28 00:45:49;;;;;;;39.97;22.70;;;;;;;;;;5054469;28;20153;-66
2022/11/28 00:48:16;;;;;;;50.10;22.92;;;;;;;;;;5069435;28;20028;-66
2022/11/28 00:50:42;;;;;;;41.60;23.63;;;;;;;;;;5051341;28;20456;-66
2022/11/28 00:53:08;;;;;;;48.90;24.77;;;;;;;;;;5070771;28;20048;-66
2022/11/28 00:55:34;;;;;;;46.70;23.55;;;;;;;;;;5054076;28;20208;-66
2022/11/28 00:58:00;;;;;;;42.47;24.17;;;;;;;;;;5074958;28;20450;-66
2022/11/28 01:00:26;;;;;;;39.47;23.30;;;;;;;;;;5070764;28;20051;-66
2022/11/28 01:02:52;;;;;;;42.33;24.67;;;;;;;;;;5074109;28;20086;-65
2022/11/28 01:05:19;;;;;;;41.35;25.55;;;;;;;;;;5075180;28;20055;-66
2022/11/28 01:07:45;;;;;;;42.60;23.30;;;;;;;;;;5064846;28;20028;-66
2022/11/28 01:10:11;;;;;;;54.22;26.13;;;;;;;;;;5059627;28;20044;-67
2022/11/28 01:12:37;;;;;;;46.25;23.60;;;;;;;;;;5076214;28;20045;-67
2022/11/28 01:15:05;;;;;;;49.75;25.35;;;;;;;;;;5054407;28;20387;-66
2022/11/28 01:17:31;;;;;;;46.67;26.55;;;;;;;;;;5054870;28;20747;-67
2022/11/28 01:19:57;;;;;;;43.53;24.88;;;;;;;;;;5055071;28;20648;-66
2022/11/28 01:22:23;;;;;;;53.53;27.17;;;;;;;;;;5056835;28;20052;-66
2022/11/28 01:24:49;;;;;;;57.05;26.73;;;;;;;;;;5074874;28;21445;-66
2022/11/28 01:27:16;;;;;;;49.63;26.73;;;;;;;;;;5073277;28;20044;-66
2022/11/28 01:29:42;;;;;;;54.72;27.80;;;;;;;;;;5075379;28;20083;-66
2022/11/28 01:32:08;;;;;;;52.33;27.38;;;;;;;;;;5054782;28;20372;-66
2022/11/28 01:34:34;;;;;;;53.03;26.88;;;;;;;;;;5070659;28;20052;-66
2022/11/28 01:37:00;;;;;;;50.70;25.80;;;;;;;;;;5055625;28;20086;-66
2022/11/28 01:39:26;;;;;;;54.30;27.23;;;;;;;;;;5073653;28;20055;-66
2022/11/28 01:41:53;;;;;;;45.90;25.45;;;;;;;;;;5051564;28;20095;-66
2022/11/28 01:44:19;;;;;;;45.05;25.65;;;;;;;;;;5062210;28;20100;-66
2022/11/28 01:46:45;;;;;;;46.85;25.77;;;;;;;;;;5074792;28;20059;-66
2022/11/28 01:49:12;;;;;;;50.90;26.70;;;;;;;;;;5070244;28;20051;-66
2022/11/28 01:51:40;;;;;;;56.53;28.75;;;;;;;;;;5054250;28;20050;-66
2022/11/28 01:54:07;;;;;;;53.95;28.45;;;;;;;;;;5072923;28;20062;-66
2022/11/28 01:56:39;;;;;;;54.95;29.20;;;;;;;;;;5055044;28;20056;-66
2022/11/28 01:59:08;;;;;;;56.58;28.45;;;;;;;;;;5073925;28;20043;-66
2022/11/28 02:01:34;;;;;;;58.80;31.17;;;;;;;;;;5072985;28;20502;-66
2022/11/28 02:04:00;;;;;;;62.08;29.70;;;;;;;;;;5071924;28;20402;-66
2022/11/28 02:06:27;;;;;;;59.00;30.52;;;;;;;;;;5056190;28;20052;-66
2022/11/28 02:08:53;;;;;;;51.40;28.15;;;;;;;;;;5074036;28;20044;-66
2022/11/28 02:11:28;;;;;;;58.58;29.65;;;;;;;;;;5068729;28;21862;-66
2022/11/28 02:13:55;;;;;;;57.75;29.83;;;;;;;;;;5073319;28;20120;-66
2022/11/28 02:16:29;;;;;;;57.53;32.08;;;;;;;;;;5073236;28;20037;-66
2022/11/28 02:19:00;;;;;;;53.70;26.85;;;;;;;;;;5068820;28;20072;-66
2022/11/28 02:21:37;;;;;;;69.50;32.08;;;;;;;;;;5069458;28;20044;-66
2022/11/28 02:24:04;;;;;;;56.28;31.35;;;;;;;;;;5053062;28;20048;-66
2022/11/28 02:26:33;;;;;;;75.28;34.05;;;;;;;;;;5067810;28;20625;-66
2022/11/28 02:29:19;;;;;;;61.88;33.80;;;;;;;;;;5069230;28;20040;-66
2022/11/28 02:32:04;;;;;;;59.00;31.40;;;;;;;;;;5070984;28;20044;-66
2022/11/28 02:34:35;;;;;;;72.00;34.72;;;;;;;;;;5054831;28;20193;-66
2022/11/28 02:37:06;;;;;;;70.18;34.45;;;;;;;;;;5070611;28;20041;-66
2022/11/28 02:39:41;;;;;;;76.25;34.03;;;;;;;;;;5067121;28;20440;-66
2022/11/28 02:42:09;;;;;;;66.00;33.75;;;;;;;;;;5054334;28;20048;-66
2022/11/28 02:44:35;;;;;;;70.68;34.38;;;;;;;;;;5074279;28;20040;-66
2022/11/28 02:47:04;;;;;;;77.22;34.05;;;;;;;;;;5077519;28;20040;-66
2022/11/28 02:49:35;;;;;;;80.10;36.20;;;;;;;;;;5068814;28;20123;-66
2022/11/28 02:52:06;;;;;;;76.43;35.88;;;;;;;;;;5068760;28;20101;-66
2022/11/28 02:54:32;;;;;;;82.50;35.65;;;;;;;;;;5050659;28;20084;-66
2022/11/28 02:56:59;;;;;;;79.10;36.30;;;;;;;;;;5048632;28;20040;-66
2022/11/28 02:59:26;;;;;;;73.57;35.47;;;;;;;;;;5051314;28;20086;-66
2022/11/28 03:01:52;;;;;;;76.57;37.67;;;;;;;;;;5058115;28;20503;-66
2022/11/28 03:04:22;;;;;;;70.85;34.45;;;;;;;;;;5055885;28;20073;-66
2022/11/28 03:06:58;;;;;;;79.63;37.47;;;;;;;;;;5051280;28;20966;-66
2022/11/28 03:09:31;;;;;;;75.57;36.35;;;;;;;;;;5069622;28;20059;-66
2022/11/28 03:12:04;;;;;;;82.45;37.78;;;;;;;;;;5066177;28;20400;-66
2022/11/28 03:14:43;;;;;;;83.05;39.20;;;;;;;;;;5069912;28;20050;-66
2022/11/28 03:17:13;;;;;;;69.68;35.90;;;;;;;;;;5070525;28;20048;-66
2022/11/28 03:19:42;;;;;;;69.05;35.58;;;;;;;;;;5069274;28;20089;-66
2022/11/28 03:22:22;;;;;;;76.25;37.13;;;;;;;;;;5068978;28;20060;-66
2022/11/28 03:24:51;;;;;;;88.53;39.15;;;;;;;;;;5068643;28;20040;-66
2022/11/28 03:27:23;;;;;;;85.55;38.83;;;;;;;;;;5071806;28;20065;-66
2022/11/28 03:29:51;;;;;;;79.30;37.58;;;;;;;;;;5070683;28;20187;-66
2022/11/28 03:32:18;;;;;;;77.60;39.67;;;;;;;;;;5075054;28;20090;-65
2022/11/28 03:34:46;;;;;;;86.15;39.80;;;;;;;;;;5041021;28;20044;-66
2022/11/28 03:37:16;;;;;;;77.95;39.10;;;;;;;;;;5071885;28;20066;-66
2022/11/28 03:39:45;;;;;;;81.47;40.25;;;;;;;;;;5072663;28;20052;-66
2022/11/28 03:42:16;;;;;;;81.13;39.63;;;;;;;;;;5071366;28;20040;-66
2022/11/28 03:44:50;;;;;;;81.90;40.25;;;;;;;;;;5072821;28;20032;-66
2022/11/28 03:47:17;;;;;;;88.80;41.22;;;;;;;;;;5049589;28;20045;-66
2022/11/28 03:49:46;;;;;;;81.07;40.67;;;;;;;;;;5056273;28;20094;-66
2022/11/28 03:52:16;;;;;;;89.82;40.50;;;;;;;;;;5051260;28;20158;-66
2022/11/28 03:54:48;;;;;;;82.70;39.15;;;;;;;;;;5053109;28;20060;-66
2022/11/28 03:57:24;;;;;;;76.22;37.58;;;;;;;;;;5069968;28;20040;-66
2022/11/28 03:59:52;;;;;;;75.03;38.75;;;;;;;;;;5071137;28;20039;-66
2022/11/28 04:02:18;;;;;;;79.07;38.95;;;;;;;;;;5068412;28;20044;-66
2022/11/28 04:04:45;;;;;;;70.70;37.70;;;;;;;;;;5052084;28;20131;-66
2022/11/28 04:07:21;;;;;;;75.63;38.33;;;;;;;;;;5050076;28;20048;-66
2022/11/28 04:09:49;;;;;;;82.18;38.28;;;;;;;;;;5052534;28;20039;-66
2022/11/28 04:12:30;;;;;;;79.53;37.25;;;;;;;;;;5069948;28;20385;-66
2022/11/28 04:15:01;;;;;;;80.55;38.15;;;;;;;;;;5049073;28;20185;-66
2022/11/28 04:17:37;;;;;;;78.22;37.03;;;;;;;;;;5068284;28;20136;-68
2022/11/28 04:20:14;;;;;;;79.32;36.65;;;;;;;;;;5069619;28;20127;-66
2022/11/28 04:22:47;;;;;;;80.95;36.92;;;;;;;;;;5074347;28;20082;-66
2022/11/28 04:25:14;;;;;;;80.22;36.65;;;;;;;;;;5051367;28;20541;-66
2022/11/28 04:27:43;;;;;;;80.85;38.13;;;;;;;;;;5050891;28;20072;-66
2022/11/28 04:30:10;;;;;;;89.25;38.90;;;;;;;;;;5067663;28;20065;-66
2022/11/28 04:32:39;;;;;;;94.88;39.78;;;;;;;;;;5070185;28;20040;-66
2022/11/28 04:35:09;;;;;;;79.25;35.55;;;;;;;;;;5051400;28;20456;-66
2022/11/28 04:37:36;;;;;;;75.82;36.53;;;;;;;;;;5051847;28;20633;-66
2022/11/28 04:40:05;;;;;;;75.07;35.85;;;;;;;;;;5048234;28;20036;-66
2022/11/28 04:42:37;;;;;;;79.82;35.65;;;;;;;;;;5067761;28;20123;-66
2022/11/28 04:45:08;;;;;;;79.00;36.45;;;;;;;;;;5033717;28;20056;-66
2022/11/28 04:47:35;;;;;;;81.20;35.88;;;;;;;;;;5068361;28;20072;-66
2022/11/28 04:50:01;;;;;;;66.13;34.45;;;;;;;;;;5068875;28;21003;-66
2022/11/28 04:52:34;;;;;;;72.97;34.65;;;;;;;;;;5046129;28;20057;-66
2022/11/28 04:55:01;;;;;;;70.80;33.72;;;;;;;;;;5048700;28;20464;-66
2022/11/28 04:57:31;;;;;;;63.53;32.33;;;;;;;;;;5069205;28;20044;-66
2022/11/28 04:59:58;;;;;;;72.85;33.67;;;;;;;;;;5066859;28;20045;-66
2022/11/28 05:02:25;;;;;;;71.25;33.05;;;;;;;;;;5068838;28;20044;-66
2022/11/28 05:04:54;;;;;;;60.40;31.17;;;;;;;;;;5070135;28;20048;-66
2022/11/28 05:07:21;;;;;;;71.55;32.22;;;;;;;;;;5046968;28;20481;-66
2022/11/28 05:09:47;;;;;;;69.55;33.25;;;;;;;;;;5071802;28;20044;-66
2022/11/28 05:12:13;;;;;;;81.28;33.90;;;;;;;;;;5069544;28;20036;-66
2022/11/28 05:14:39;;;;;;;68.13;32.92;;;;;;;;;;5063102;28;20044;-66
2022/11/28 05:17:06;;;;;;;65.53;30.98;;;;;;;;;;5072682;28;20036;-66
2022/11/28 05:19:32;;;;;;;71.07;32.67;;;;;;;;;;5070771;28;20071;-66
2022/11/28 05:21:58;;;;;;;64.45;30.70;;;;;;;;;;5053083;28;20048;-66
2022/11/28 05:24:24;;;;;;;63.85;29.75;;;;;;;;;;5073242;28;21682;-66
2022/11/28 05:26:50;;;;;;;62.28;30.40;;;;;;;;;;5070798;28;20040;-66
2022/11/28 05:29:17;;;;;;;67.30;30.52;;;;;;;;;;5072816;28;20036;-66
2022/11/28 05:31:43;;;;;;;65.07;30.98;;;;;;;;;;5073314;28;20055;-66
2022/11/28 05:34:09;;;;;;;66.15;30.38;;;;;;;;;;5054581;28;20059;-66
2022/11/28 05:36:35;;;;;;;64.20;30.33;;;;;;;;;;5073417;28;20032;-66
2022/11/28 05:39:01;;;;;;;66.90;30.23;;;;;;;;;;5074726;28;20412;-66
2022/11/28 05:41:29;;;;;;;69.88;31.23;;;;;;;;;;5070127;28;20048;-66
2022/11/28 05:43:56;;;;;;;60.38;28.75;;;;;;;;;;5073467;28;20127;-66
2022/11/28 05:46:22;;;;;;;62.38;29.85;;;;;;;;;;5071469;28;20123;-66
2022/11/28 05:48:48;;;;;;;62.42;29.05;;;;;;;;;;5071853;28;20036;-66
2022/11/28 05:51:14;;;;;;;57.70;27.65;;;;;;;;;;5073867;28;20174;-66
2022/11/28 05:53:41;;;;;;;55.03;27.27;;;;;;;;;;5071629;28;20543;-66
2022/11/28 05:56:08;;;;;;;59.05;28.50;;;;;;;;;;5069451;28;20049;-66
2022/11/28 05:58:34;;;;;;;55.17;25.98;;;;;;;;;;5059622;28;20043;-67
2022/11/28 06:01:08;;;;;;;65.47;29.15;;;;;;;;;;5079095;28;20050;-66
2022/11/28 06:03:34;;;;;;;61.42;27.77;;;;;;;;;;5053497;28;20198;-66
2022/11/28 06:06:00;;;;;;;59.80;26.45;;;;;;;;;;5077042;28;20137;-66
2022/11/28 06:08:26;;;;;;;60.15;27.30;;;;;;;;;;5075034;28;20067;-66
2022/11/28 06:10:57;;;;;;;60.17;26.58;;;;;;;;;;5061087;28;20112;-66
2022/11/28 06:13:23;;;;;;;58.78;25.48;;;;;;;;;;5055787;28;20129;-66
2022/11/28 06:15:49;;;;;;;56.38;25.33;;;;;;;;;;5056273;28;20056;-66
2022/11/28 06:18:16;;;;;;;54.70;24.17;;;;;;;;;;5056660;28;20051;-66
2022/11/28 06:20:42;;;;;;;54.10;24.30;;;;;;;;;;5056464;28;20040;-66
2022/11/28 06:23:08;;;;;;;50.70;23.13;;;;;;;;;;5056885;28;20055;-66
2022/11/28 06:25:34;;;;;;;50.10;23.23;;;;;;;;;;5052196;28;20044;-66
2022/11/28 06:28:00;;;;;;;54.92;23.08;;;;;;;;;;5075515;28;20089;-67
2022/11/28 06:30:26;;;;;;;45.80;21.10;;;;;;;;;;5057973;28;20132;-66
2022/11/28 06:32:52;;;;;;;54.55;22.55;;;;;;;;;;5077339;28;20067;-66
2022/11/28 06:35:18;;;;;;;52.03;22.45;;;;;;;;;;5074767;28;20434;-66
2022/11/28 06:37:45;;;;;;;50.58;21.63;;;;;;;;;;5072133;28;20775;-66
2022/11/28 06:40:11;;;;;;;51.10;22.10;;;;;;;;;;5074978;28;20446;-66
2022/11/28 06:42:37;;;;;;;42.10;20.20;;;;;;;;;;5074232;28;20505;-66
2022/11/28 06:45:04;;;;;;;42.72;21.45;;;;;;;;;;5078660;28;20041;-66
2022/11/28 06:47:30;;;;;;;43.30;21.65;;;;;;;;;;5080953;28;20449;-66
2022/11/28 06:49:56;;;;;;;43.20;21.00;;;;;;;;;;5057739;28;20059;-66
2022/11/28 06:52:22;;;;;;;40.22;21.02;;;;;;;;;;5053364;28;20128;-66
2022/11/28 06:54:49;;;;;;;43.03;22.02;;;;;;;;;;5054853;28;20104;-66
2022/11/28 06:57:15;;;;;;;47.92;22.30;;;;;;;;;;5077298;28;20869;-66
2022/11/28 06:59:41;;;;;;;41.65;20.77;;;;;;;;;;5054616;28;20067;-66
2022/11/28 07:02:07;;;;;;;43.80;22.05;;;;;;;;;;5074773;28;20037;-67
2022/11/28 07:04:34;;;;;;;46.97;21.60;;;;;;;;;;5062753;28;20131;-66
2022/11/28 07:07:01;;;;;;;44.10;21.58;;;;;;;;;;5074341;28;20807;-66
2022/11/28 07:09:27;;;;;;;47.42;22.00;;;;;;;;;;5061195;28;20098;-66
2022/11/28 07:11:53;;;;;;;42.67;21.15;;;;;;;;;;5077032;28;20048;-65
2022/11/28 07:14:19;;;;;;;48.80;23.17;;;;;;;;;;5081069;28;20396;-65
2022/11/28 07:16:47;;;;;;;48.78;23.13;;;;;;;;;;5077986;28;20123;-66
2022/11/28 07:19:13;;;;;;;41.15;21.27;;;;;;;;;;5055719;28;21011;-66
2022/11/28 07:21:40;;;;;;;38.85;22.17;;;;;;;;;;5057729;28;20079;-66
2022/11/28 07:24:06;;;;;;;41.22;21.95;;;;;;;;;;5056648;28;20067;-66
2022/11/28 07:26:32;;;;;;;42.30;21.85;;;;;;;;;;5072480;28;20044;-65
2022/11/28 07:28:59;;;;;;;45.00;22.55;;;;;;;;;;5074347;28;20902;-66
2022/11/28 07:31:27;;;;;;;45.03;22.45;;;;;;;;;;5078607;28;20487;-66
2022/11/28 07:33:54;;;;;;;44.63;21.92;;;;;;;;;;5078483;28;20102;-66
2022/11/28 07:36:21;;;;;;;46.47;21.92;;;;;;;;;;5075424;28;20040;-66
2022/11/28 07:38:48;;;;;;;46.45;22.05;;;;;;;;;;5076922;28;20461;-66
2022/11/28 07:41:14;;;;;;;41.65;21.52;;;;;;;;;;5055045;28;20070;-66
2022/11/28 07:43:42;;;;;;;44.78;22.60;;;;;;;;;;5077458;28;20046;-66
2022/11/28 07:46:09;;;;;;;43.92;20.88;;;;;;;;;;5062103;28;20089;-66
2022/11/28 07:48:36;;;;;;;48.33;21.77;;;;;;;;;;5055659;28;20120;-66
2022/11/28 07:51:07;;;;;;;49.10;22.45;;;;;;;;;;5074022;28;20127;-66
2022/11/28 07:53:34;;;;;;;50.85;22.25;;;;;;;;;;5071890;28;20044;-66
2022/11/28 07:56:02;;;;;;;48.15;20.52;;;;;;;;;;5071328;28;20422;-66
2022/11/28 07:58:28;;;;;;;43.42;21.42;;;;;;;;;;5051012;28;20059;-66
2022/11/28 08:00:54;;;;;;;48.83;21.80;;;;;;;;;;5069719;28;20044;-66
2022/11/28 08:03:21;;;;;;;54.25;21.83;;;;;;;;;;5053394;28;20131;-66
2022/11/28 08:05:48;;;;;;;46.88;20.38;;;;;;;;;;5076230;28;20117;-66
2022/11/28 08:08:16;;;;;;;54.40;22.20;;;;;;;;;;5076689;28;20086;-66
2022/11/28 08:10:42;;;;;;;48.65;20.92;;;;;;;;;;5076308;28;20134;-66
2022/11/28 08:13:09;;;;;;;41.50;19.08;;;;;;;;;;5076528;28;20078;-66
2022/11/28 08:15:37;;;;;;;46.10;20.10;;;;;;;;;;5078134;28;20052;-66
2022/11/28 08:18:03;;;;;;;43.08;21.05;;;;;;;;;;5074256;28;20040;-66
2022/11/28 08:20:29;;;;;;;46.90;19.38;;;;;;;;;;5075748;28;20044;-66
2022/11/28 08:22:55;;;;;;;52.30;20.48;;;;;;;;;;5079508;28;20059;-66
2022/11/28 08:25:21;;;;;;;47.58;20.08;;;;;;;;;;5074949;28;20071;-66
2022/11/28 08:27:48;;;;;;;46.45;19.15;;;;;;;;;;5074504;28;20046;-67
2022/11/28 08:30:15;;;;;;;50.28;20.45;;;;;;;;;;5073645;28;20119;-67
2022/11/28 08:32:41;;;;;;;49.13;20.35;;;;;;;;;;5074888;28;20036;-66
2022/11/28 08:35:07;;;;;;;45.15;19.45;;;;;;;;;;5074144;28;20067;-66
2022/11/28 08:37:33;;;;;;;44.72;18.80;;;;;;;;;;5055291;28;20067;-66
2022/11/28 08:40:00;;;;;;;51.17;19.67;;;;;;;;;;5076392;28;20043;-66
2022/11/28 08:42:27;;;;;;;45.88;20.05;;;;;;;;;;5056847;28;20048;-65
2022/11/28 08:44:53;;;;;;;54.45;18.98;;;;;;;;;;5069878;28;20043;-66
2022/11/28 08:47:19;;;;;;;54.53;20.23;;;;;;;;;;5075742;28;20036;-66
2022/11/28 08:49:46;;;;;;;57.55;20.63;;;;;;;;;;5073218;28;20262;-66
2022/11/28 08:52:12;;;;;;;55.22;21.63;;;;;;;;;;5069158;28;20036;-67
2022/11/28 08:54:38;;;;;;;72.90;24.27;;;;;;;;;;5073810;28;20044;-67
2022/11/28 08:57:04;;;;;;;68.05;23.55;;;;;;;;;;5072697;28;20439;-67
2022/11/28 08:59:31;;;;;;;66.30;24.25;;;;;;;;;;5035185;28;20055;-66
2022/11/28 09:01:57;;;;;;;74.25;25.48;;;;;;;;;;5071758;28;20041;-66
2022/11/28 09:04:23;;;;;;;87.57;27.52;;;;;;;;;;5074485;28;20497;-66
2022/11/28 09:06:49;;;;;;;88.95;28.83;;;;;;;;;;5072562;28;20040;-67
2022/11/28 09:09:15;;;;;;;97.88;30.83;;;;;;;;;;5072211;28;20492;-67
2022/11/28 09:11:42;;;;;;;100.65;31.40;;;;;;;;;;5077509;28;20040;-67
2022/11/28 09:14:08;;;;;;;100.60;33.53;;;;;;;;;;5083765;28;20036;-67
2022/11/28 09:16:34;;;;;;;105.07;33.95;;;;;;;;;;5060125;28;20153;-67
2022/11/28 09:19:01;;;;;;;99.97;33.63;;;;;;;;;;5081744;28;20032;-67
2022/11/28 09:21:27;;;;;;;112.72;34.72;;;;;;;;;;5075170;28;20048;-68
2022/11/28 09:23:54;;;;;;;104.47;33.97;;;;;;;;;;5079903;28;20123;-67
2022/11/28 09:26:23;;;;;;;123.43;36.42;;;;;;;;;;5073415;28;20052;-67
2022/11/28 09:28:49;;;;;;;114.88;35.78;;;;;;;;;;5078587;28;20117;-68
2022/11/28 09:31:16;;;;;;;117.60;35.72;;;;;;;;;;5045791;28;20056;-67
2022/11/28 09:33:43;;;;;;;120.38;36.90;;;;;;;;;;5080491;28;20036;-67
2022/11/28 09:36:11;;;;;;;119.90;35.85;;;;;;;;;;5063871;28;20036;-67
2022/11/28 09:38:38;;;;;;;123.45;37.92;;;;;;;;;;5078877;28;20044;-67
2022/11/28 09:41:16;;;;;;;127.25;37.55;;;;;;;;;;5079881;28;20067;-67
2022/11/28 09:43:43;;;;;;;135.10;40.80;;;;;;;;;;5076764;28;20086;-67
2022/11/28 09:46:12;;;;;;;147.05;40.83;;;;;;;;;;5076786;28;20040;-67
2022/11/28 09:48:44;;;;;;;123.72;39.65;;;;;;;;;;5052763;28;20077;-68
2022/11/28 09:51:13;;;;;;;122.13;39.63;;;;;;;;;;5052000;28;20064;-67
2022/11/28 09:53:45;;;;;;;165.30;41.90;;;;;;;;;;5054331;28;22510;-67
2022/11/28 09:56:13;;;;;;;139.57;40.15;;;;;;;;;;5049757;28;20154;-67
2022/11/28 09:58:47;;;;;;;123.32;38.35;;;;;;;;;;5057705;28;20037;-67
2022/11/28 10:01:18;;;;;;;141.25;42.00;;;;;;;;;;5061065;28;20369;-67
2022/11/28 10:03:45;;;;;;;128.65;40.67;;;;;;;;;;5058024;28;20117;-68
2022/11/28 10:06:17;;;;;;;133.57;41.08;;;;;;;;;;5058937;28;20044;-67
2022/11/28 10:08:51;;;;;;;132.05;40.83;;;;;;;;;;5055760;28;20064;-67
2022/11/28 10:11:34;;;;;;;142.40;40.42;;;;;;;;;;5054754;28;20041;-67
2022/11/28 10:14:09;;;;;;;122.50;39.53;;;;;;;;;;5056176;28;20064;-67
2022/11/28 10:16:43;;;;;;;130.02;38.90;;;;;;;;;;5053976;28;20369;-67
2022/11/28 10:19:12;;;;;;;118.93;37.78;;;;;;;;;;5062539;28;20045;-67
2022/11/28 10:21:41;;;;;;;136.20;38.08;;;;;;;;;;5058191;28;20049;-68
2022/11/28 10:24:13;;;;;;;122.45;37.33;;;;;;;;;;5062963;28;20044;-67
2022/11/28 10:26:42;;;;;;;138.82;38.33;;;;;;;;;;5042198;28;20053;-67
2022/11/28 10:29:20;;;;;;;119.05;36.22;;;;;;;;;;5053327;28;20041;-67
2022/11/28 10:31:46;;;;;;;102.65;35.28;;;;;;;;;;5065053;28;20059;-68
2022/11/28 10:34:16;;;;;;;111.95;33.60;;;;;;;;;;5059375;28;20128;-68
2022/11/28 10:36:54;;;;;;;90.90;31.02;;;;;;;;;;5052155;28;20040;-68
2022/11/28 10:39:20;;;;;;;94.05;29.58;;;;;;;;;;5057901;28;20505;-68
2022/11/28 10:42:10;;;;;;;93.18;28.95;;;;;;;;;;5058594;28;20040;-68
2022/11/28 10:44:35;;;;;;;97.15;29.45;;;;;;;;;;5051877;28;20569;-68
2022/11/28 10:47:06;;;;;;;104.00;31.83;;;;;;;;;;5054605;28;20044;-76
2022/11/28 10:49:41;;;;;;;75.07;27.05;;;;;;;;;;5050547;28;20451;-68
2022/11/28 10:52:19;;;;;;;86.68;29.05;;;;;;;;;;5048789;28;20510;-68
2022/11/28 10:54:54;;;;;;;74.93;25.95;;;;;;;;;;5053897;28;20052;-68
2022/11/28 10:57:23;;;;;;;82.88;28.02;;;;;;;;;;5050141;28;20068;-68
2022/11/28 10:59:49;;;;;;;92.20;30.85;;;;;;;;;;5057860;28;20388;-68
2022/11/28 11:02:20;;;;;;;108.10;33.03;;;;;;;;;;5057057;28;20217;-68
2022/11/28 11:04:46;;;;;;;113.97;36.50;;;;;;;;;;5055709;28;20040;-77
2022/11/28 11:07:15;;;;;;;118.05;33.92;;;;;;;;;;5055213;28;20113;-69
2022/11/28 11:09:42;;;;;;;93.57;30.45;;;;;;;;;;5057094;28;20377;-68
2022/11/28 11:12:12;;;;;;;111.18;34.92;;;;;;;;;;5054119;28;20527;-68
2022/11/28 11:14:39;;;;;;;95.40;31.00;;;;;;;;;;5058641;28;20088;-69
2022/11/28 11:17:05;;;;;;;99.65;32.28;;;;;;;;;;5055672;28;20039;-68
2022/11/28 11:19:33;;;;;;;91.25;31.38;;;;;;;;;;5055659;28;20733;-68
2022/11/28 11:22:14;;;;;;;94.28;31.17;;;;;;;;;;5057045;28;20048;-68
2022/11/28 11:24:40;;;;;;;98.70;31.15;;;;;;;;;;5058905;28;20105;-68
2022/11/28 11:27:16;;;;;;;95.03;31.55;;;;;;;;;;5059465;28;20079;-68
2022/11/28 11:29:43;;;;;;;106.00;32.75;;;;;;;;;;5057768;28;20055;-68
2022/11/28 11:32:20;;;;;;;103.72;33.58;;;;;;;;;;5052588;28;20156;-69
2022/11/28 11:34:47;;;;;;;108.28;33.80;;;;;;;;;;5055463;28;20052;-69
2022/11/28 11:37:21;;;;;;;109.25;36.22;;;;;;;;;;5048647;28;20049;-68
2022/11/28 11:39:48;;;;;;;116.78;36.80;;;;;;;;;;5050065;28;20433;-68
2022/11/28 11:42:20;;;;;;;94.10;32.70;;;;;;;;;;5056862;28;20049;-68
2022/11/28 11:44:46;;;;;;;109.45;33.28;;;;;;;;;;5057744;28;20093;-68
2022/11/28 11:47:13;;;;;;;104.50;33.35;;;;;;;;;;5057280;28;20090;-68
2022/11/28 11:49:42;;;;;;;111.35;33.58;;;;;;;;;;5054559;28;20071;-68
2022/11/28 11:52:11;;;;;;;108.18;34.17;;;;;;;;;;5055083;28;20045;-67
2022/11/28 11:54:40;;;;;;;99.03;33.45;;;;;;;;;;5058281;28;20399;-67
2022/11/28 11:57:11;;;;;;;100.45;32.95;;;;;;;;;;5055346;28;20048;-67
2022/11/28 11:59:42;;;;;;;86.05;31.90;;;;;;;;;;5058415;28;20054;-67
2022/11/28 12:02:18;;;;;;;101.15;31.35;;;;;;;;;;5051958;28;20045;-67
2022/11/28 12:04:48;;;;;;;91.85;30.13;;;;;;;;;;5054784;28;20678;-68
2022/11/28 12:07:21;;;;;;;96.40;31.77;;;;;;;;;;5057794;28;20044;-68
2022/11/28 12:09:49;;;;;;;96.78;32.00;;;;;;;;;;5058736;28;20040;-67
2022/11/28 12:12:22;;;;;;;101.07;32.88;;;;;;;;;;5055353;28;20136;-67
2022/11/28 12:14:49;;;;;;;100.85;32.10;;;;;;;;;;5052688;28;20055;-67
2022/11/28 12:17:33;;;;;;;81.65;31.10;;;;;;;;;;5054577;28;20354;-67
2022/11/28 12:20:08;;;;;;;82.47;31.58;;;;;;;;;;5051344;28;20052;-68
2022/11/28 12:22:39;;;;;;;94.18;32.42;;;;;;;;;;5059677;28;20461;-67
2022/11/28 12:25:05;;;;;;;88.43;31.40;;;;;;;;;;5040353;28;20051;-67
2022/11/28 12:27:39;;;;;;;86.38;30.80;;;;;;;;;;5052078;28;20148;-68
2022/11/28 12:30:26;;;;;;;85.15;29.67;;;;;;;;;;5061292;28;20032;-67
2022/11/28 12:32:58;;;;;;;80.30;28.35;;;;;;;;;;5059928;28;20122;-67
2022/11/28 12:35:33;;;;;;;83.05;30.23;;;;;;;;;;5053763;28;20057;-67
2022/11/28 12:38:09;;;;;;;96.28;30.98;;;;;;;;;;5049949;28;20088;-67
2022/11/28 12:40:36;;;;;;;93.70;31.98;;;;;;;;;;5049260;28;20489;-67
2022/11/28 12:43:12;;;;;;;90.85;31.52;;;;;;;;;;5027894;28;20037;-67
2022/11/28 12:45:45;;;;;;;105.18;33.38;;;;;;;;;;5052867;28;20044;-67
2022/11/28 12:48:29;;;;;;;98.05;32.30;;;;;;;;;;5054401;28;20558;-67
2022/11/28 12:51:07;;;;;;;112.25;34.40;;;;;;;;;;5050231;28;20041;-67
2022/11/28 12:53:51;;;;;;;115.88;34.85;;;;;;;;;;5053699;28;20056;-67
2022/11/28 12:56:41;;;;;;;118.45;35.58;;;;;;;;;;5053330;28;20048;-68
2022/11/28 12:59:20;;;;;;;125.70;35.40;;;;;;;;;;5037058;28;20139;-67
2022/11/28 13:01:54;;;;;;;134.45;38.58;;;;;;;;;;5031414;28;20155;-67
2022/11/28 13:04:25;;;;;;;126.50;35.72;;;;;;;;;;5049051;28;20095;-67
2022/11/28 13:07:01;;;;;;;147.98;39.22;;;;;;;;;;5031558;28;20235;-67
2022/11/28 13:09:30;;;;;;;147.95;37.33;;;;;;;;;;5054520;28;20032;-67
2022/11/28 13:12:02;;;;;;;146.00;38.30;;;;;;;;;;5034099;28;20041;-67
2022/11/28 13:14:49;;;;;;;147.15;38.55;;;;;;;;;;5042781;28;20135;-67
2022/11/28 13:17:18;;;;;;;152.07;39.97;;;;;;;;;;5056554;28;20037;-68
2022/11/28 13:19:49;;;;;;;148.02;38.58;;;;;;;;;;5051197;28;20045;-68
2022/11/28 13:22:19;;;;;;;176.20;39.95;;;;;;;;;;5057681;28;20055;-67
2022/11/28 13:24:59;;;;;;;157.25;40.20;;;;;;;;;;5057752;28;20121;-68
2022/11/28 13:27:32;;;;;;;157.82;38.72;;;;;;;;;;5056202;28;20045;-68
2022/11/28 13:30:16;;;;;;;160.00;40.47;;;;;;;;;;5057033;28;20079;-68
2022/11/28 13:32:49;;;;;;;177.38;40.88;;;;;;;;;;5034188;28;20080;-68
2022/11/28 13:35:16;;;;;;;173.25;41.25;;;;;;;;;;5058227;28;20052;-68
2022/11/28 13:37:52;;;;;;;167.48;40.00;;;;;;;;;;5056589;28;20032;-68
2022/11/28 13:40:26;;;;;;;196.32;42.17;;;;;;;;;;5055516;28;20045;-68
2022/11/28 13:42:59;;;;;;;204.88;42.53;;;;;;;;;;5053140;28;20411;-67
2022/11/28 13:45:28;;;;;;;204.32;42.30;;;;;;;;;;5042445;28;20080;-68
2022/11/28 13:47:54;;;;;;;201.88;42.53;;;;;;;;;;5040602;28;20045;-68
2022/11/28 13:50:21;;;;;;;190.55;42.08;;;;;;;;;;5045626;28;20048;-67
2022/11/28 13:52:58;;;;;;;211.20;42.90;;;;;;;;;;5060766;28;20057;-67
2022/11/28 13:55:36;;;;;;;219.35;42.25;;;;;;;;;;5047496;28;20411;-67
2022/11/28 13:58:19;;;;;;;242.02;45.53;;;;;;;;;;5060797;28;20037;-68
2022/11/28 14:00:59;;;;;;;248.90;44.65;;;;;;;;;;5056925;28;20450;-67
2022/11/28 14:03:26;;;;;;;268.77;45.47;;;;;;;;;;5060273;28;20306;-67
2022/11/28 14:05:55;;;;;;;261.60;47.65;;;;;;;;;;5059887;28;20123;-68
2022/11/28 14:08:26;;;;;;;279.42;47.42;;;;;;;;;;5058929;28;20044;-68
2022/11/28 14:11:02;;;;;;;318.15;48.22;;;;;;;;;;5028001;28;20044;-69
2022/11/28 14:13:43;;;;;;;286.45;47.47;;;;;;;;;;5059765;28;20052;-67
2022/11/28 14:16:16;;;;;;;339.05;51.05;;;;;;;;;;5064011;28;20040;-68
2022/11/28 14:18:53;;;;;;;291.05;46.67;;;;;;;;;;5046664;28;20040;-67
2022/11/28 14:21:29;;;;;;;299.08;49.95;;;;;;;;;;5042999;28;20081;-68
2022/11/28 14:23:58;;;;;;;288.92;48.65;;;;;;;;;;5040664;28;20041;-68
2022/11/28 14:26:33;;;;;;;293.65;49.03;;;;;;;;;;5047559;28;20105;-67